createdAt,value
2018-02-27T00:00:40.581Z,0
2018-02-27T00:01:40.610Z,0
2018-02-27T00:02:40.511Z,0
2018-02-27T00:03:40.466Z,0
2018-02-27T00:04:39.934Z,0
2018-02-27T00:05:40.403Z,0
2018-02-27T00:06:40.108Z,0
2018-02-27T00:07:40.067Z,0
2018-02-27T00:08:40.286Z,0
2018-02-27T00:09:40.245Z,0
2018-02-27T00:10:39.531Z,0
2018-02-27T00:11:40.151Z,0
2018-02-27T00:12:40.131Z,0
2018-02-27T00:13:40.628Z,0
2018-02-27T00:14:40.059Z,0
2018-02-27T00:15:40.031Z,0
2018-02-27T00:16:39.750Z,0
2018-02-27T00:17:39.690Z,0
2018-02-27T00:18:39.906Z,0
2018-02-27T00:19:39.623Z,0
2018-02-27T00:20:39.829Z,0
2018-02-27T00:21:39.045Z,0
2018-02-27T00:22:39.516Z,0
2018-02-27T00:23:39.723Z,0
2018-02-27T00:24:39.431Z,0
2018-02-27T00:25:39.642Z,0
2018-02-27T00:26:39.614Z,0
2018-02-27T00:27:39.317Z,0
2018-02-27T00:28:38.782Z,0
2018-02-27T00:29:39.504Z,0
2018-02-27T00:30:39.201Z,0
2018-02-27T00:31:39.166Z,0
2018-02-27T00:32:39.374Z,0
2018-02-27T00:33:39.334Z,0
2018-02-27T00:34:39.295Z,0
2018-02-27T00:35:39.271Z,0
2018-02-27T00:36:38.730Z,0
2018-02-27T00:37:38.936Z,0
2018-02-27T00:38:39.152Z,0
2018-02-27T00:39:38.861Z,0
2018-02-27T00:40:39.077Z,0
2018-02-27T00:41:38.543Z,0
2018-02-27T00:42:38.754Z,0
2018-02-27T00:43:38.962Z,0
2018-02-27T00:44:38.678Z,0
2018-02-27T00:45:38.646Z,0
2018-02-27T00:46:38.860Z,0
2018-02-27T00:47:38.808Z,0
2018-02-27T00:48:38.774Z,0
2018-02-27T00:49:38.744Z,0
2018-02-27T00:50:38.202Z,0
2018-02-27T00:51:38.409Z,0
2018-02-27T00:52:38.626Z,0
2018-02-27T00:53:38.342Z,0
2018-02-27T00:54:38.292Z,0
2018-02-27T00:55:38.017Z,0
2018-02-27T00:56:38.242Z,0
2018-02-27T00:57:38.428Z,0
2018-02-27T00:58:38.397Z,0
2018-02-27T00:59:38.356Z,0
2018-02-27T01:00:38.337Z,0
2018-02-27T01:01:38.286Z,0
2018-02-27T01:02:38.252Z,0
2018-02-27T01:03:38.202Z,0
2018-02-27T01:04:37.926Z,0
2018-02-27T01:05:38.132Z,0
2018-02-27T01:06:38.102Z,0
2018-02-27T01:07:37.559Z,0
2018-02-27T01:08:38.016Z,0
2018-02-27T01:09:37.979Z,0
2018-02-27T01:10:37.936Z,0
2018-02-27T01:11:37.905Z,0
2018-02-27T01:12:37.360Z,0
2018-02-27T01:13:37.585Z,0
2018-02-27T01:14:37.793Z,0
2018-02-27T01:15:37.752Z,0
2018-02-27T01:16:37.211Z,0
2018-02-27T01:17:37.423Z,0
2018-02-27T01:18:37.642Z,0
2018-02-27T01:19:37.595Z,0
2018-02-27T01:20:37.065Z,0
2018-02-27T01:21:37.521Z,0
2018-02-27T01:22:37.511Z,0
2018-02-27T01:23:37.452Z,0
2018-02-27T01:24:37.405Z,0
2018-02-27T01:25:37.114Z,0
2018-02-27T01:26:37.331Z,0
2018-02-27T01:27:37.292Z,0
2018-02-27T01:28:36.908Z,0
2018-02-27T01:29:37.242Z,0
2018-02-27T01:30:36.930Z,0
2018-02-27T01:31:36.640Z,0
2018-02-27T01:32:37.114Z,0
2018-02-27T01:33:37.066Z,0
2018-02-27T01:34:36.778Z,0
2018-02-27T01:35:36.992Z,0
2018-02-27T01:36:36.699Z,0
2018-02-27T01:37:36.664Z,0
2018-02-27T01:38:36.630Z,0
2018-02-27T01:39:36.839Z,0
2018-02-27T01:40:36.551Z,0
2018-02-27T01:41:36.517Z,0
2018-02-27T01:42:36.727Z,0
2018-02-27T01:43:36.435Z,0
2018-02-27T01:44:36.646Z,0
2018-02-27T01:45:36.360Z,0
2018-02-27T01:46:36.571Z,0
2018-02-27T01:47:36.335Z,0
2018-02-27T01:48:36.499Z,0
2018-02-27T01:49:36.455Z,0
2018-02-27T01:50:36.194Z,0
2018-02-27T01:51:36.134Z,0
2018-02-27T01:52:35.861Z,0
2018-02-27T01:53:36.319Z,0
2018-02-27T01:54:36.021Z,0
2018-02-27T01:55:36.228Z,0
2018-02-27T01:56:36.204Z,0
2018-02-27T01:57:36.152Z,0
2018-02-27T01:58:36.114Z,0
2018-02-27T01:59:35.830Z,0
2018-02-27T02:00:35.538Z,0
2018-02-27T02:01:35.752Z,0
2018-02-27T02:02:35.966Z,0
2018-02-27T02:03:36.008Z,0
2018-02-27T02:04:35.645Z,0
2018-02-27T02:05:35.604Z,0
2018-02-27T02:06:35.563Z,0
2018-02-27T02:07:35.572Z,0
2018-02-27T02:08:35.744Z,0
2018-02-27T02:09:35.199Z,0
2018-02-27T02:10:35.657Z,0
2018-02-27T02:11:35.378Z,0
2018-02-27T02:12:35.343Z,0
2018-02-27T02:13:35.292Z,0
2018-02-27T02:14:35.260Z,0
2018-02-27T02:15:35.468Z,0
2018-02-27T02:16:35.184Z,0
2018-02-27T02:17:35.391Z,0
2018-02-27T02:18:35.346Z,0
2018-02-27T02:19:34.815Z,0
2018-02-27T02:20:35.030Z,0
2018-02-27T02:21:35.236Z,0
2018-02-27T02:22:34.947Z,0
2018-02-27T02:23:34.909Z,0
2018-02-27T02:24:35.125Z,0
2018-02-27T02:25:35.083Z,0
2018-02-27T02:26:35.042Z,0
2018-02-27T02:27:35.013Z,0
2018-02-27T02:28:34.972Z,0
2018-02-27T02:29:34.924Z,0
2018-02-27T02:30:34.669Z,0
2018-02-27T02:31:34.354Z,0
2018-02-27T02:32:34.834Z,0
2018-02-27T02:33:34.542Z,0
2018-02-27T02:34:34.778Z,0
2018-02-27T02:35:34.466Z,0
2018-02-27T02:36:34.678Z,0
2018-02-27T02:37:34.388Z,0
2018-02-27T02:38:34.336Z,0
2018-02-27T02:39:34.055Z,0
2018-02-27T02:40:34.510Z,0
2018-02-27T02:41:34.510Z,0
2018-02-27T02:42:34.432Z,0
2018-02-27T02:43:34.393Z,0
2018-02-27T02:44:34.101Z,0
2018-02-27T02:45:34.065Z,0
2018-02-27T02:46:34.281Z,0
2018-02-27T02:47:34.233Z,0
2018-02-27T02:48:34.205Z,0
2018-02-27T02:49:33.911Z,0
2018-02-27T02:50:34.128Z,0
2018-02-27T02:51:33.336Z,0
2018-02-27T02:52:34.050Z,0
2018-02-27T02:53:33.507Z,0
2018-02-27T02:54:33.971Z,0
2018-02-27T02:55:33.931Z,0
2018-02-27T02:56:33.898Z,0
2018-02-27T02:57:33.353Z,0
2018-02-27T02:58:33.575Z,0
2018-02-27T02:59:33.280Z,0
2018-02-27T03:00:45.170Z,0
2018-02-27T03:01:33.699Z,0
2018-02-27T03:02:33.660Z,0
2018-02-27T03:03:33.371Z,0
2018-02-27T03:04:33.334Z,0
2018-02-27T03:05:33.541Z,0
2018-02-27T03:06:33.504Z,0
2018-02-27T03:07:33.461Z,0
2018-02-27T03:08:33.438Z,0
2018-02-27T03:09:33.391Z,0
2018-02-27T03:10:32.874Z,0
2018-02-27T03:11:33.326Z,0
2018-02-27T03:12:33.681Z,0
2018-02-27T03:13:33.236Z,0
2018-02-27T03:14:33.674Z,0
2018-02-27T03:15:32.908Z,0
2018-02-27T03:16:32.873Z,0
2018-02-27T03:17:32.847Z,0
2018-02-27T03:18:33.040Z,0
2018-02-27T03:19:33.009Z,0
2018-02-27T03:20:32.976Z,0
2018-02-27T03:21:33.019Z,0
2018-02-27T03:22:32.640Z,0
2018-02-27T03:23:32.850Z,0
2018-02-27T03:24:32.564Z,0
2018-02-27T03:25:32.522Z,0
2018-02-27T03:26:32.737Z,0
2018-02-27T03:27:32.696Z,0
2018-02-27T03:28:32.410Z,0
2018-02-27T03:29:32.611Z,0
2018-02-27T03:30:32.593Z,0
2018-02-27T03:31:32.304Z,0
2018-02-27T03:32:32.499Z,0
2018-02-27T03:33:32.472Z,0
2018-02-27T03:34:32.173Z,0
2018-02-27T03:35:32.382Z,0
2018-02-27T03:36:32.450Z,0
2018-02-27T03:37:32.321Z,0
2018-02-27T03:38:32.267Z,0
2018-02-27T03:39:31.994Z,0
2018-02-27T03:40:31.947Z,0
2018-02-27T03:41:31.904Z,0
2018-02-27T03:42:32.123Z,0
2018-02-27T03:43:32.095Z,0
2018-02-27T03:44:32.042Z,0
2018-02-27T03:45:31.996Z,0
2018-02-27T03:46:31.958Z,0
2018-02-27T03:47:31.667Z,0
2018-02-27T03:48:31.655Z,0
2018-02-27T03:49:31.842Z,0
2018-02-27T03:50:31.811Z,0
2018-02-27T03:51:31.273Z,0
2018-02-27T03:52:31.726Z,0
2018-02-27T03:53:31.449Z,0
2018-02-27T03:54:31.654Z,0
2018-02-27T03:55:31.610Z,0
2018-02-27T03:56:31.081Z,0
2018-02-27T03:57:31.534Z,0
2018-02-27T03:58:31.259Z,0
2018-02-27T03:59:31.207Z,0
2018-02-27T04:00:31.165Z,0
2018-02-27T04:01:31.426Z,0
2018-02-27T04:02:31.091Z,0
2018-02-27T04:03:31.299Z,0
2018-02-27T04:04:31.258Z,0
2018-02-27T04:05:31.218Z,0
2018-02-27T04:06:30.933Z,0
2018-02-27T04:07:31.142Z,0
2018-02-27T04:08:30.857Z,0
2018-02-27T04:09:30.820Z,0
2018-02-27T04:10:30.777Z,0
2018-02-27T04:11:30.989Z,0
2018-02-27T04:12:31.009Z,0
2018-02-27T04:13:30.945Z,0
2018-02-27T04:14:30.625Z,0
2018-02-27T04:15:30.842Z,0
2018-02-27T04:16:30.543Z,0
2018-02-27T04:17:30.754Z,0
2018-02-27T04:18:30.766Z,0
2018-02-27T04:19:30.427Z,0
2018-02-27T04:20:30.391Z,0
2018-02-27T04:21:30.598Z,0
2018-02-27T04:22:30.570Z,0
2018-02-27T04:23:30.524Z,0
2018-02-27T04:24:30.486Z,0
2018-02-27T04:25:30.449Z,0
2018-02-27T04:26:30.406Z,0
2018-02-27T04:27:30.372Z,0
2018-02-27T04:28:30.396Z,0
2018-02-27T04:29:29.569Z,0
2018-02-27T04:30:29.753Z,0
2018-02-27T04:31:30.213Z,0
2018-02-27T04:32:30.172Z,0
2018-02-27T04:33:30.131Z,0
2018-02-27T04:34:29.847Z,0
2018-02-27T04:35:29.557Z,0
2018-02-27T04:36:29.767Z,0
2018-02-27T04:37:29.981Z,0
2018-02-27T04:38:29.694Z,0
2018-02-27T04:39:29.659Z,0
2018-02-27T04:40:29.611Z,0
2018-02-27T04:41:29.819Z,0
2018-02-27T04:42:29.779Z,0
2018-02-27T04:43:29.244Z,0
2018-02-27T04:44:29.703Z,0
2018-02-27T04:45:29.671Z,0
2018-02-27T04:46:29.622Z,0
2018-02-27T04:47:29.589Z,0
2018-02-27T04:48:29.554Z,0
2018-02-27T04:49:29.509Z,0
2018-02-27T04:50:29.465Z,0
2018-02-27T04:51:28.934Z,0
2018-02-27T04:52:29.393Z,0
2018-02-27T04:53:28.943Z,0
2018-02-27T04:54:28.820Z,0
2018-02-27T04:55:29.019Z,0
2018-02-27T04:56:29.237Z,0
2018-02-27T04:57:28.948Z,0
2018-02-27T04:58:29.212Z,0
2018-02-27T04:59:28.870Z,0
2018-02-27T05:00:29.087Z,0
2018-02-27T05:01:29.042Z,0
2018-02-27T05:02:29.005Z,0
2018-02-27T05:03:28.710Z,0
2018-02-27T05:04:28.691Z,0
2018-02-27T05:05:28.880Z,0
2018-02-27T05:06:28.843Z,0
2018-02-27T05:07:28.807Z,0
2018-02-27T05:08:28.758Z,0
2018-02-27T05:09:28.477Z,0
2018-02-27T05:10:28.682Z,0
2018-02-27T05:11:28.556Z,0
2018-02-27T05:12:28.358Z,0
2018-02-27T05:13:28.568Z,0
2018-02-27T05:14:28.294Z,0
2018-02-27T05:15:28.461Z,0
2018-02-27T05:16:27.990Z,0
2018-02-27T05:17:31.124Z,0
2018-02-27T05:18:28.375Z,0
2018-02-27T05:19:27.844Z,0
2018-02-27T05:20:28.304Z,0
2018-02-27T05:21:28.007Z,0
2018-02-27T05:22:27.981Z,0
2018-02-27T05:23:28.178Z,0
2018-02-27T05:24:28.144Z,0
2018-02-27T05:25:28.112Z,0
2018-02-27T05:26:28.060Z,0
2018-02-27T05:27:28.022Z,0
2018-02-27T05:28:27.981Z,0
2018-02-27T05:29:27.988Z,0
2018-02-27T05:30:27.910Z,0
2018-02-27T05:31:27.867Z,0
2018-02-27T05:32:27.579Z,0
2018-02-27T05:33:27.292Z,0
2018-02-27T05:34:27.519Z,0
2018-02-27T05:35:27.460Z,0
2018-02-27T05:36:27.660Z,0
2018-02-27T05:37:27.383Z,0
2018-02-27T05:38:27.343Z,0
2018-02-27T05:39:27.051Z,0
2018-02-27T05:40:27.506Z,0
2018-02-27T05:41:27.469Z,0
2018-02-27T05:42:27.433Z,0
2018-02-27T05:43:26.894Z,0
2018-02-27T05:44:27.351Z,0
2018-02-27T05:45:27.451Z,0
2018-02-27T05:46:27.182Z,0
2018-02-27T05:47:27.237Z,0
2018-02-27T05:48:27.192Z,0
2018-02-27T05:49:26.264Z,0
2018-02-27T05:50:26.870Z,0
2018-02-27T05:51:26.832Z,0
2018-02-27T05:52:26.550Z,0
2018-02-27T05:53:27.001Z,0
2018-02-27T05:54:26.979Z,0
2018-02-27T05:55:26.920Z,0
2018-02-27T05:56:26.632Z,0
2018-02-27T05:57:26.847Z,0
2018-02-27T05:58:26.805Z,0
2018-02-27T05:59:26.816Z,0
2018-02-27T06:00:26.727Z,0
2018-02-27T06:01:26.449Z,0
2018-02-27T06:02:26.649Z,0
2018-02-27T06:03:26.613Z,0
2018-02-27T06:04:26.363Z,0
2018-02-27T06:05:26.277Z,0
2018-02-27T06:06:26.493Z,0
2018-02-27T06:07:26.451Z,0
2018-02-27T06:08:26.161Z,5
2018-02-27T06:09:26.132Z,5
2018-02-27T06:10:26.088Z,5
2018-02-27T06:11:25.773Z,5
2018-02-27T06:12:26.253Z,5
2018-02-27T06:13:25.989Z,5
2018-02-27T06:14:26.067Z,10
2018-02-27T06:15:25.888Z,10
2018-02-27T06:16:26.099Z,10
2018-02-27T06:17:25.817Z,15
2018-02-27T06:18:25.764Z,15
2018-02-27T06:19:25.991Z,15
2018-02-27T06:20:27.793Z,15
2018-02-27T06:21:27.437Z,20
2018-02-27T06:22:28.911Z,20
2018-02-27T06:23:28.518Z,25
2018-02-27T06:24:25.080Z,25
2018-02-27T06:25:25.742Z,30
2018-02-27T06:26:25.455Z,30
2018-02-27T06:27:25.428Z,30
2018-02-27T06:28:25.627Z,35
2018-02-27T06:29:25.597Z,35
2018-02-27T06:30:25.548Z,40
2018-02-27T06:31:25.657Z,40
2018-02-27T06:32:25.664Z,45
2018-02-27T06:33:25.434Z,45
2018-02-27T06:34:25.391Z,50
2018-02-27T06:35:25.455Z,50
2018-02-27T06:36:25.316Z,55
2018-02-27T06:37:25.138Z,60
2018-02-27T06:38:25.228Z,60
2018-02-27T06:39:24.947Z,65
2018-02-27T06:40:25.250Z,70
2018-02-27T06:41:25.122Z,70
2018-02-27T06:42:25.086Z,75
2018-02-27T06:43:25.040Z,80
2018-02-27T06:44:24.750Z,80
2018-02-27T06:45:24.714Z,85
2018-02-27T06:46:24.926Z,90
2018-02-27T06:47:24.700Z,90
2018-02-27T06:48:24.852Z,95
2018-02-27T06:49:24.552Z,95
2018-02-27T06:50:24.515Z,95
2018-02-27T06:51:24.723Z,100
2018-02-27T06:52:24.438Z,100
2018-02-27T06:53:24.645Z,105
2018-02-27T06:54:24.609Z,105
2018-02-27T06:55:24.687Z,110
2018-02-27T06:56:24.280Z,110
2018-02-27T06:57:24.493Z,115
2018-02-27T06:58:24.449Z,120
2018-02-27T06:59:24.417Z,120
2018-02-27T07:00:24.463Z,125
2018-02-27T07:01:24.335Z,125
2018-02-27T07:02:24.294Z,130
2018-02-27T07:03:24.011Z,135
2018-02-27T07:04:23.968Z,135
2018-02-27T07:05:24.174Z,135
2018-02-27T07:06:24.277Z,145
2018-02-27T07:07:24.113Z,145
2018-02-27T07:08:24.062Z,150
2018-02-27T07:09:24.021Z,145
2018-02-27T07:10:23.897Z,145
2018-02-27T07:11:23.706Z,150
2018-02-27T07:12:23.659Z,150
2018-02-27T07:13:23.877Z,155
2018-02-27T07:14:23.587Z,155
2018-02-27T07:15:23.559Z,160
2018-02-27T07:16:23.753Z,160
2018-02-27T07:17:23.720Z,165
2018-02-27T07:18:23.677Z,165
2018-02-27T07:19:23.390Z,170
2018-02-27T07:20:23.358Z,180
2018-02-27T07:21:23.566Z,180
2018-02-27T07:22:23.275Z,185
2018-02-27T07:23:23.233Z,195
2018-02-27T07:24:23.194Z,205
2018-02-27T07:25:23.403Z,215
2018-02-27T07:26:23.372Z,220
2018-02-27T07:27:23.089Z,215
2018-02-27T07:28:23.038Z,210
2018-02-27T07:29:23.256Z,215
2018-02-27T07:30:22.964Z,215
2018-02-27T07:31:23.179Z,215
2018-02-27T07:32:22.890Z,215
2018-02-27T07:33:22.606Z,210
2018-02-27T07:34:22.816Z,205
2018-02-27T07:35:23.167Z,195
2018-02-27T07:36:22.732Z,195
2018-02-27T07:37:22.694Z,195
2018-02-27T07:38:22.914Z,200
2018-02-27T07:39:22.867Z,200
2018-02-27T07:40:22.330Z,200
2018-02-27T07:41:22.800Z,210
2018-02-27T07:42:22.504Z,210
2018-02-27T07:43:22.218Z,210
2018-02-27T07:44:22.431Z,210
2018-02-27T07:45:22.689Z,215
2018-02-27T07:46:21.853Z,215
2018-02-27T07:47:22.581Z,215
2018-02-27T07:48:22.030Z,220
2018-02-27T07:49:22.235Z,220
2018-02-27T07:50:22.446Z,220
2018-02-27T07:51:22.166Z,220
2018-02-27T07:52:22.368Z,225
2018-02-27T07:53:21.837Z,225
2018-02-27T07:54:22.045Z,230
2018-02-27T07:55:22.255Z,230
2018-02-27T07:56:21.978Z,230
2018-02-27T07:57:22.351Z,235
2018-02-27T07:58:22.248Z,240
2018-02-27T07:59:22.615Z,240
2018-02-27T08:00:22.381Z,240
2018-02-27T08:01:22.561Z,245
2018-02-27T08:02:21.989Z,250
2018-02-27T08:03:21.703Z,260
2018-02-27T08:04:21.859Z,275
2018-02-27T08:05:22.864Z,280
2018-02-27T08:06:21.831Z,290
2018-02-27T08:07:21.991Z,310
2018-02-27T08:08:21.782Z,335
2018-02-27T08:09:21.732Z,370
2018-02-27T08:10:21.701Z,390
2018-02-27T08:11:21.655Z,400
2018-02-27T08:12:21.735Z,395
2018-02-27T08:13:21.077Z,390
2018-02-27T08:14:21.042Z,390
2018-02-27T08:15:21.502Z,395
2018-02-27T08:16:21.585Z,395
2018-02-27T08:17:21.425Z,400
2018-02-27T08:18:21.394Z,390
2018-02-27T08:19:21.354Z,370
2018-02-27T08:20:21.397Z,335
2018-02-27T08:21:21.034Z,305
2018-02-27T08:22:21.292Z,290
2018-02-27T08:23:21.208Z,290
2018-02-27T08:24:21.171Z,285
2018-02-27T08:25:20.886Z,285
2018-02-27T08:26:21.104Z,275
2018-02-27T08:27:20.812Z,270
2018-02-27T08:28:21.023Z,275
2018-02-27T08:29:20.988Z,275
2018-02-27T08:30:20.953Z,275
2018-02-27T08:31:20.940Z,275
2018-02-27T08:32:21.070Z,270
2018-02-27T08:33:20.596Z,275
2018-02-27T08:34:20.556Z,275
2018-02-27T08:35:20.523Z,275
2018-02-27T08:36:20.237Z,280
2018-02-27T08:37:20.702Z,280
2018-02-27T08:38:20.165Z,285
2018-02-27T08:39:20.633Z,285
2018-02-27T08:40:20.091Z,285
2018-02-27T08:41:20.435Z,280
2018-02-27T08:42:19.771Z,280
2018-02-27T08:43:20.242Z,280
2018-02-27T08:44:20.028Z,285
2018-02-27T08:45:20.153Z,285
2018-02-27T08:46:20.121Z,285
2018-02-27T08:47:20.080Z,285
2018-02-27T08:48:20.043Z,285
2018-02-27T08:49:20.009Z,285
2018-02-27T08:50:20.215Z,290
2018-02-27T08:51:19.695Z,290
2018-02-27T08:52:20.203Z,295
2018-02-27T08:53:19.950Z,295
2018-02-27T08:54:19.320Z,295
2018-02-27T08:55:20.030Z,295
2018-02-27T08:56:19.827Z,300
2018-02-27T08:57:19.710Z,295
2018-02-27T08:58:19.694Z,290
2018-02-27T08:59:19.896Z,290
2018-02-27T09:00:19.614Z,295
2018-02-27T09:01:19.824Z,295
2018-02-27T09:02:19.775Z,295
2018-02-27T09:03:19.251Z,295
2018-02-27T09:04:19.701Z,295
2018-02-27T09:05:19.438Z,295
2018-02-27T09:06:19.380Z,295
2018-02-27T09:07:19.351Z,295
2018-02-27T09:08:19.597Z,295
2018-02-27T09:09:19.293Z,300
2018-02-27T09:10:19.481Z,305
2018-02-27T09:11:19.441Z,305
2018-02-27T09:12:19.384Z,310
2018-02-27T09:13:19.271Z,315
2018-02-27T09:14:18.840Z,320
2018-02-27T09:15:19.050Z,330
2018-02-27T09:16:19.020Z,355
2018-02-27T09:17:19.228Z,365
2018-02-27T09:18:18.699Z,370
2018-02-27T09:19:19.450Z,360
2018-02-27T09:20:19.324Z,345
2018-02-27T09:21:18.840Z,345
2018-02-27T09:22:18.872Z,320
2018-02-27T09:23:18.758Z,310
2018-02-27T09:24:18.725Z,305
2018-02-27T09:25:18.688Z,305
2018-02-27T09:26:18.651Z,305
2018-02-27T09:27:18.363Z,305
2018-02-27T09:28:18.578Z,305
2018-02-27T09:29:18.540Z,315
2018-02-27T09:30:18.768Z,315
2018-02-27T09:31:18.720Z,325
2018-02-27T09:32:18.673Z,325
2018-02-27T09:33:18.399Z,315
2018-02-27T09:34:18.358Z,310
2018-02-27T09:35:18.323Z,310
2018-02-27T09:36:18.040Z,305
2018-02-27T09:37:18.500Z,305
2018-02-27T09:38:18.661Z,310
2018-02-27T09:39:18.456Z,310
2018-02-27T09:40:18.390Z,310
2018-02-27T09:41:18.105Z,310
2018-02-27T09:42:17.820Z,310
2018-02-27T09:43:18.029Z,310
2018-02-27T09:44:18.007Z,310
2018-02-27T09:45:18.210Z,310
2018-02-27T09:46:17.927Z,315
2018-02-27T09:47:17.894Z,310
2018-02-27T09:48:18.128Z,310
2018-02-27T09:49:17.820Z,315
2018-02-27T09:50:17.783Z,315
2018-02-27T09:51:17.743Z,320
2018-02-27T09:52:17.876Z,320
2018-02-27T09:53:17.921Z,320
2018-02-27T09:54:17.885Z,320
2018-02-27T09:55:17.842Z,320
2018-02-27T09:56:17.318Z,320
2018-02-27T09:57:17.529Z,320
2018-02-27T09:58:17.747Z,320
2018-02-27T09:59:17.456Z,320
2018-02-27T10:00:17.424Z,320
2018-02-27T10:01:17.134Z,320
2018-02-27T10:02:17.598Z,325
2018-02-27T10:03:17.310Z,325
2018-02-27T10:04:17.559Z,325
2018-02-27T10:05:17.454Z,325
2018-02-27T10:06:16.987Z,325
2018-02-27T10:07:17.173Z,325
2018-02-27T10:08:17.133Z,330
2018-02-27T10:09:17.100Z,330
2018-02-27T10:10:17.322Z,330
2018-02-27T10:11:17.034Z,330
2018-02-27T10:12:16.993Z,335
2018-02-27T10:13:16.955Z,335
2018-02-27T10:14:17.166Z,330
2018-02-27T10:15:16.633Z,335
2018-02-27T10:16:17.142Z,340
2018-02-27T10:17:17.192Z,335
2018-02-27T10:18:17.028Z,335
2018-02-27T10:19:16.491Z,335
2018-02-27T10:20:16.959Z,335
2018-02-27T10:21:16.918Z,335
2018-02-27T10:22:17.005Z,335
2018-02-27T10:23:16.853Z,335
2018-02-27T10:24:16.816Z,340
2018-02-27T10:25:16.780Z,340
2018-02-27T10:26:16.499Z,340
2018-02-27T10:27:16.710Z,345
2018-02-27T10:28:16.421Z,340
2018-02-27T10:29:16.953Z,340
2018-02-27T10:30:16.359Z,340
2018-02-27T10:31:16.576Z,340
2018-02-27T10:32:16.531Z,340
2018-02-27T10:33:16.494Z,345
2018-02-27T10:34:16.480Z,345
2018-02-27T10:35:16.178Z,345
2018-02-27T10:36:16.392Z,340
2018-02-27T10:37:16.358Z,340
2018-02-27T10:38:16.073Z,340
2018-02-27T10:39:16.381Z,345
2018-02-27T10:40:16.675Z,350
2018-02-27T10:41:15.968Z,355
2018-02-27T10:42:16.181Z,350
2018-02-27T10:43:15.904Z,350
2018-02-27T10:44:16.117Z,350
2018-02-27T10:45:15.345Z,350
2018-02-27T10:46:15.802Z,345
2018-02-27T10:47:15.770Z,345
2018-02-27T10:48:15.736Z,345
2018-02-27T10:49:15.954Z,350
2018-02-27T10:50:17.559Z,350
2018-02-27T10:51:17.050Z,350
2018-02-27T10:52:17.168Z,350
2018-02-27T10:53:15.931Z,350
2018-02-27T10:54:15.779Z,350
2018-02-27T10:55:15.738Z,350
2018-02-27T10:56:15.453Z,345
2018-02-27T10:57:15.764Z,350
2018-02-27T10:58:15.381Z,345
2018-02-27T10:59:15.353Z,345
2018-02-27T11:00:15.068Z,345
2018-02-27T11:01:15.030Z,345
2018-02-27T11:02:15.104Z,340
2018-02-27T11:03:15.789Z,345
2018-02-27T11:04:15.169Z,345
2018-02-27T11:05:15.167Z,350
2018-02-27T11:06:15.452Z,350
2018-02-27T11:07:16.543Z,345
2018-02-27T11:08:14.534Z,340
2018-02-27T11:09:14.997Z,350
2018-02-27T11:10:14.712Z,350
2018-02-27T11:11:15.917Z,350
2018-02-27T11:12:14.811Z,355
2018-02-27T11:13:16.141Z,360
2018-02-27T11:14:15.726Z,365
2018-02-27T11:15:17.318Z,370
2018-02-27T11:16:16.969Z,380
2018-02-27T11:17:15.897Z,380
2018-02-27T11:18:15.709Z,375
2018-02-27T11:19:16.669Z,375
2018-02-27T11:20:15.652Z,395
2018-02-27T11:21:15.541Z,435
2018-02-27T11:22:15.731Z,450
2018-02-27T11:23:15.344Z,420
2018-02-27T11:24:16.173Z,405
2018-02-27T11:25:14.707Z,410
2018-02-27T11:26:14.581Z,410
2018-02-27T11:27:14.634Z,420
2018-02-27T11:28:14.378Z,445
2018-02-27T11:29:14.063Z,455
2018-02-27T11:30:14.610Z,435
2018-02-27T11:31:14.158Z,400
2018-02-27T11:32:14.887Z,390
2018-02-27T11:33:14.419Z,400
2018-02-27T11:34:16.300Z,410
2018-02-27T11:35:15.214Z,400
2018-02-27T11:36:14.105Z,410
2018-02-27T11:37:13.303Z,415
2018-02-27T11:38:14.009Z,410
2018-02-27T11:39:13.897Z,425
2018-02-27T11:40:15.508Z,430
2018-02-27T11:41:14.985Z,390
2018-02-27T11:42:14.115Z,410
2018-02-27T11:43:13.864Z,410
2018-02-27T11:44:14.586Z,410
2018-02-27T11:45:14.011Z,410
2018-02-27T11:46:13.482Z,405
2018-02-27T11:47:13.953Z,420
2018-02-27T11:48:13.940Z,435
2018-02-27T11:49:14.947Z,435
2018-02-27T11:50:14.313Z,445
2018-02-27T11:51:14.176Z,450
2018-02-27T11:52:14.445Z,445
2018-02-27T11:53:14.200Z,435
2018-02-27T11:54:16.352Z,420
2018-02-27T11:55:15.956Z,415
2018-02-27T11:56:14.266Z,425
2018-02-27T11:57:15.815Z,430
2018-02-27T11:58:13.582Z,450
2018-02-27T11:59:13.588Z,455
2018-02-27T12:00:13.265Z,455
2018-02-27T12:01:13.488Z,460
2018-02-27T12:02:13.270Z,465
2018-02-27T12:03:13.848Z,495
2018-02-27T12:04:13.138Z,545
2018-02-27T12:05:13.712Z,605
2018-02-27T12:06:13.314Z,630
2018-02-27T12:07:13.287Z,660
2018-02-27T12:08:13.296Z,730
2018-02-27T12:09:13.277Z,730
2018-02-27T12:10:13.200Z,720
2018-02-27T12:11:12.657Z,670
2018-02-27T12:13:12.602Z,650
2018-02-27T12:14:12.808Z,640
2018-02-27T12:15:12.531Z,620
2018-02-27T12:16:12.747Z,595
2018-02-27T12:17:12.721Z,600
2018-02-27T12:18:13.072Z,615
2018-02-27T12:19:14.719Z,655
2018-02-27T12:20:12.643Z,675
2018-02-27T12:21:12.597Z,645
2018-02-27T12:22:12.164Z,635
2018-02-27T12:23:12.784Z,715
2018-02-27T12:24:12.503Z,775
2018-02-27T12:25:12.479Z,820
2018-02-27T12:26:12.715Z,805
2018-02-27T12:27:12.415Z,790
2018-02-27T12:28:12.385Z,735
2018-02-27T12:29:12.357Z,690
2018-02-27T12:30:12.464Z,725
2018-02-27T12:31:12.050Z,690
2018-02-27T12:32:12.515Z,695
2018-02-27T12:33:12.238Z,705
2018-02-27T12:34:12.211Z,725
2018-02-27T12:35:12.182Z,740
2018-02-27T12:36:12.718Z,720
2018-02-27T12:37:12.367Z,665
2018-02-27T12:38:12.094Z,630
2018-02-27T12:39:12.187Z,580
2018-02-27T12:40:12.046Z,555
2018-02-27T12:41:12.011Z,550
2018-02-27T12:42:12.230Z,595
2018-02-27T12:43:11.704Z,605
2018-02-27T12:44:12.172Z,560
2018-02-27T12:45:11.898Z,525
2018-02-27T12:46:12.117Z,490
2018-02-27T12:47:11.938Z,430
2018-02-27T12:48:12.062Z,460
2018-02-27T12:49:11.924Z,470
2018-02-27T12:50:12.305Z,500
2018-02-27T12:51:11.714Z,485
2018-02-27T12:52:11.930Z,465
2018-02-27T12:53:12.042Z,475
2018-02-27T12:54:12.280Z,495
2018-02-27T12:55:11.596Z,540
2018-02-27T12:56:11.826Z,605
2018-02-27T12:57:11.536Z,660
2018-02-27T12:58:11.765Z,655
2018-02-27T12:59:11.468Z,635
2018-02-27T13:00:11.443Z,650
2018-02-27T13:01:11.173Z,650
2018-02-27T13:02:11.374Z,650
2018-02-27T13:03:11.358Z,615
2018-02-27T13:04:11.578Z,565
2018-02-27T13:05:11.040Z,525
2018-02-27T13:06:10.764Z,505
2018-02-27T13:07:11.234Z,515
2018-02-27T13:08:11.204Z,535
2018-02-27T13:09:11.426Z,550
2018-02-27T13:10:11.345Z,560
2018-02-27T13:11:10.864Z,555
2018-02-27T13:12:11.354Z,530
2018-02-27T13:13:11.150Z,510
2018-02-27T13:14:11.030Z,520
2018-02-27T13:15:10.744Z,520
2018-02-27T13:16:10.963Z,525
2018-02-27T13:17:10.927Z,550
2018-02-27T13:18:11.074Z,580
2018-02-27T13:19:10.895Z,595
2018-02-27T13:20:11.080Z,600
2018-02-27T13:21:10.810Z,615
2018-02-27T13:22:10.531Z,600
2018-02-27T13:23:10.996Z,615
2018-02-27T13:24:10.710Z,635
2018-02-27T13:25:10.924Z,570
2018-02-27T13:26:11.298Z,520
2018-02-27T13:27:10.619Z,520
2018-02-27T13:28:10.887Z,560
2018-02-27T13:29:10.805Z,570
2018-02-27T13:30:10.776Z,520
2018-02-27T13:31:10.514Z,460
2018-02-27T13:32:10.469Z,440
2018-02-27T13:33:10.185Z,395
2018-02-27T13:34:10.654Z,380
2018-02-27T13:35:10.763Z,390
2018-02-27T13:36:10.533Z,390
2018-02-27T13:37:10.315Z,375
2018-02-27T13:38:10.278Z,360
2018-02-27T13:39:10.343Z,365
2018-02-27T13:40:09.967Z,370
2018-02-27T13:41:10.192Z,380
2018-02-27T13:42:10.152Z,385
2018-02-27T13:43:10.116Z,390
2018-02-27T13:44:10.089Z,425
2018-02-27T13:45:09.804Z,420
2018-02-27T13:46:10.166Z,425
2018-02-27T13:47:10.652Z,415
2018-02-27T13:48:09.460Z,405
2018-02-27T13:49:13.816Z,415
2018-02-27T13:50:09.646Z,410
2018-02-27T13:51:09.615Z,405
2018-02-27T13:52:09.674Z,400
2018-02-27T13:53:09.913Z,400
2018-02-27T13:54:09.523Z,405
2018-02-27T13:55:09.735Z,400
2018-02-27T13:56:09.766Z,395
2018-02-27T13:57:09.670Z,395
2018-02-27T13:58:09.701Z,395
2018-02-27T13:59:09.612Z,395
2018-02-27T14:00:09.316Z,375
2018-02-27T14:01:09.787Z,405
2018-02-27T14:02:09.765Z,425
2018-02-27T14:03:09.722Z,455
2018-02-27T14:04:09.216Z,495
2018-02-27T14:05:09.168Z,520
2018-02-27T14:06:09.630Z,550
2018-02-27T14:07:09.606Z,555
2018-02-27T14:08:09.321Z,520
2018-02-27T14:09:09.535Z,495
2018-02-27T14:10:09.255Z,465
2018-02-27T14:11:09.231Z,400
2018-02-27T14:12:09.187Z,365
2018-02-27T14:13:09.415Z,330
2018-02-27T14:14:09.391Z,305